sensor_id;sensor_type;location;lat;lon;timestamp;temperature;humidity
65568;DHT22;52211;50.154;8.682;2023-05-08T00:00:40;18.10;55.20
65568;DHT22;52211;50.154;8.682;2023-05-08T00:03:07;18.10;55.30
65568;DHT22;52211;50.154;8.682;2023-05-08T00:05:40;18.00;55.30
65568;DHT22;52211;50.154;8.682;2023-05-08T00:08:07;18.00;55.50
65568;DHT22;52211;50.154;8.682;2023-05-08T00:10:34;18.00;55.40
65568;DHT22;52211;50.154;8.682;2023-05-08T00:13:03;18.00;55.50
65568;DHT22;52211;50.154;8.682;2023-05-08T00:15:38;17.90;55.50
65568;DHT22;52211;50.154;8.682;2023-05-08T00:18:04;17.90;55.70
65568;DHT22;52211;50.154;8.682;2023-05-08T00:20:31;17.90;55.50
65568;DHT22;52211;50.154;8.682;2023-05-08T00:23:04;17.80;55.50
65568;DHT22;52211;50.154;8.682;2023-05-08T00:25:31;17.90;55.70
65568;DHT22;52211;50.154;8.682;2023-05-08T00:28:00;17.90;55.60
65568;DHT22;52211;50.154;8.682;2023-05-08T00:30:27;17.90;55.70
65568;DHT22;52211;50.154;8.682;2023-05-08T00:32:56;17.80;55.60
65568;DHT22;52211;50.154;8.682;2023-05-08T00:35:23;17.90;55.70
65568;DHT22;52211;50.154;8.682;2023-05-08T00:37:50;17.90;55.70
65568;DHT22;52211;50.154;8.682;2023-05-08T00:40:19;17.90;55.70
65568;DHT22;52211;50.154;8.682;2023-05-08T00:42:47;17.90;55.80
65568;DHT22;52211;50.154;8.682;2023-05-08T00:45:13;17.80;55.60
65568;DHT22;52211;50.154;8.682;2023-05-08T00:47:47;17.80;55.70
65568;DHT22;52211;50.154;8.682;2023-05-08T00:50:18;17.80;55.70
65568;DHT22;52211;50.154;8.682;2023-05-08T00:52:46;17.80;55.70
65568;DHT22;52211;50.154;8.682;2023-05-08T00:55:13;17.80;55.80
65568;DHT22;52211;50.154;8.682;2023-05-08T00:57:45;17.80;55.80
65568;DHT22;52211;50.154;8.682;2023-05-08T01:00:16;17.80;55.90
65568;DHT22;52211;50.154;8.682;2023-05-08T01:02:49;17.80;55.90
65568;DHT22;52211;50.154;8.682;2023-05-08T01:05:21;17.70;55.80
65568;DHT22;52211;50.154;8.682;2023-05-08T01:07:50;17.70;55.90
65568;DHT22;52211;50.154;8.682;2023-05-08T01:10:19;17.70;55.80
65568;DHT22;52211;50.154;8.682;2023-05-08T01:13:35;17.70;55.80
65568;DHT22;52211;50.154;8.682;2023-05-08T01:26:07;17.60;56.40
65568;DHT22;52211;50.154;8.682;2023-05-08T01:29:12;17.60;56.30
65568;DHT22;52211;50.154;8.682;2023-05-08T01:32:09;17.60;56.00
65568;DHT22;52211;50.154;8.682;2023-05-08T01:34:50;17.60;56.50
65568;DHT22;52211;50.154;8.682;2023-05-08T01:43:28;17.50;56.50
65568;DHT22;52211;50.154;8.682;2023-05-08T01:46:07;17.50;56.50
65568;DHT22;52211;50.154;8.682;2023-05-08T01:48:49;17.50;56.20
65568;DHT22;52211;50.154;8.682;2023-05-08T01:51:24;17.40;56.40
65568;DHT22;52211;50.154;8.682;2023-05-08T01:54:04;17.40;56.10
65568;DHT22;52211;50.154;8.682;2023-05-08T01:56:42;17.40;56.30
65568;DHT22;52211;50.154;8.682;2023-05-08T01:59:16;17.40;56.20
65568;DHT22;52211;50.154;8.682;2023-05-08T02:01:55;17.40;56.30
65568;DHT22;52211;50.154;8.682;2023-05-08T02:04:27;17.40;56.30
65568;DHT22;52211;50.154;8.682;2023-05-08T02:06:58;17.40;56.40
65568;DHT22;52211;50.154;8.682;2023-05-08T02:09:30;17.30;56.30
65568;DHT22;52211;50.154;8.682;2023-05-08T02:11:59;17.40;56.40
65568;DHT22;52211;50.154;8.682;2023-05-08T02:14:29;17.30;56.40
65568;DHT22;52211;50.154;8.682;2023-05-08T02:16:58;17.40;56.50
65568;DHT22;52211;50.154;8.682;2023-05-08T02:19:28;17.40;56.50
65568;DHT22;52211;50.154;8.682;2023-05-08T02:22:03;17.30;56.40
65568;DHT22;52211;50.154;8.682;2023-05-08T02:24:34;17.40;56.60
65568;DHT22;52211;50.154;8.682;2023-05-08T02:27:04;17.30;56.50
65568;DHT22;52211;50.154;8.682;2023-05-08T02:29:34;17.30;56.50
65568;DHT22;52211;50.154;8.682;2023-05-08T02:32:07;17.30;56.50
65568;DHT22;52211;50.154;8.682;2023-05-08T02:34:35;17.30;56.50
65568;DHT22;52211;50.154;8.682;2023-05-08T02:37:11;17.30;56.50
65568;DHT22;52211;50.154;8.682;2023-05-08T02:39:43;17.30;56.50
65568;DHT22;52211;50.154;8.682;2023-05-08T02:42:13;17.30;56.50
65568;DHT22;52211;50.154;8.682;2023-05-08T02:44:45;17.30;56.50
65568;DHT22;52211;50.154;8.682;2023-05-08T02:47:24;17.30;56.60
65568;DHT22;52211;50.154;8.682;2023-05-08T02:50:22;17.20;56.70
65568;DHT22;52211;50.154;8.682;2023-05-08T02:53:07;17.20;57.00
65568;DHT22;52211;50.154;8.682;2023-05-08T02:55:49;17.20;56.80
65568;DHT22;52211;50.154;8.682;2023-05-08T03:01:23;17.20;56.80
65568;DHT22;52211;50.154;8.682;2023-05-08T03:04:18;17.10;57.00
65568;DHT22;52211;50.154;8.682;2023-05-08T03:06:55;17.10;57.20
65568;DHT22;52211;50.154;8.682;2023-05-08T03:09:33;17.10;56.80
65568;DHT22;52211;50.154;8.682;2023-05-08T03:12:13;17.10;56.90
65568;DHT22;52211;50.154;8.682;2023-05-08T03:14:52;17.10;56.80
65568;DHT22;52211;50.154;8.682;2023-05-08T03:17:27;17.00;56.90
65568;DHT22;52211;50.154;8.682;2023-05-08T03:20:07;17.00;56.90
65568;DHT22;52211;50.154;8.682;2023-05-08T03:22:41;17.00;56.90
65568;DHT22;52211;50.154;8.682;2023-05-08T03:25:16;17.00;56.90
65568;DHT22;52211;50.154;8.682;2023-05-08T03:27:48;16.90;57.00
65568;DHT22;52211;50.154;8.682;2023-05-08T03:30:22;17.00;57.00
65568;DHT22;52211;50.154;8.682;2023-05-08T03:33:04;16.90;57.00
65568;DHT22;52211;50.154;8.682;2023-05-08T03:35:38;16.90;57.00
65568;DHT22;52211;50.154;8.682;2023-05-08T03:38:09;16.90;57.20
65568;DHT22;52211;50.154;8.682;2023-05-08T03:40:37;16.90;57.20
65568;DHT22;52211;50.154;8.682;2023-05-08T03:43:10;16.90;57.20
65568;DHT22;52211;50.154;8.682;2023-05-08T03:45:42;16.90;57.20
65568;DHT22;52211;50.154;8.682;2023-05-08T03:48:10;16.90;57.20
65568;DHT22;52211;50.154;8.682;2023-05-08T03:50:38;16.90;57.20
65568;DHT22;52211;50.154;8.682;2023-05-08T03:53:08;16.90;57.90
65568;DHT22;52211;50.154;8.682;2023-05-08T03:55:39;16.90;57.30
65568;DHT22;52211;50.154;8.682;2023-05-08T03:58:32;16.80;57.20
65568;DHT22;52211;50.154;8.682;2023-05-08T04:01:17;16.80;57.70
65568;DHT22;52211;50.154;8.682;2023-05-08T04:06:48;16.80;57.40
65568;DHT22;52211;50.154;8.682;2023-05-08T04:12:08;16.80;57.70
65568;DHT22;52211;50.154;8.682;2023-05-08T04:14:58;16.80;57.50
65568;DHT22;52211;50.154;8.682;2023-05-08T04:17:41;16.80;57.80
65568;DHT22;52211;50.154;8.682;2023-05-08T04:20:15;16.80;57.90
65568;DHT22;52211;50.154;8.682;2023-05-08T04:22:53;16.80;57.60
65568;DHT22;52211;50.154;8.682;2023-05-08T04:25:27;16.80;57.60
65568;DHT22;52211;50.154;8.682;2023-05-08T04:27:57;16.80;57.70
65568;DHT22;52211;50.154;8.682;2023-05-08T04:30:31;16.80;57.50
65568;DHT22;52211;50.154;8.682;2023-05-08T04:33:01;16.80;57.70
65568;DHT22;52211;50.154;8.682;2023-05-08T04:35:30;16.80;57.70
65568;DHT22;52211;50.154;8.682;2023-05-08T04:37:58;16.80;57.70
65568;DHT22;52211;50.154;8.682;2023-05-08T04:40:32;16.80;57.80
65568;DHT22;52211;50.154;8.682;2023-05-08T04:43:03;16.80;57.90
65568;DHT22;52211;50.154;8.682;2023-05-08T04:45:30;16.80;57.90
65568;DHT22;52211;50.154;8.682;2023-05-08T04:48:01;16.70;57.80
65568;DHT22;52211;50.154;8.682;2023-05-08T04:50:31;16.70;57.90
65568;DHT22;52211;50.154;8.682;2023-05-08T04:53:01;16.70;57.90
65568;DHT22;52211;50.154;8.682;2023-05-08T04:55:27;16.60;57.90
65568;DHT22;52211;50.154;8.682;2023-05-08T04:57:57;16.60;58.00
65568;DHT22;52211;50.154;8.682;2023-05-08T05:00:24;16.50;58.10
65568;DHT22;52211;50.154;8.682;2023-05-08T05:02:53;16.50;58.10
65568;DHT22;52211;50.154;8.682;2023-05-08T05:05:23;16.50;58.30
65568;DHT22;52211;50.154;8.682;2023-05-08T05:07:52;16.50;58.40
65568;DHT22;52211;50.154;8.682;2023-05-08T05:10:21;16.50;58.50
65568;DHT22;52211;50.154;8.682;2023-05-08T05:12:50;16.50;58.50
65568;DHT22;52211;50.154;8.682;2023-05-08T05:15:17;16.50;58.50
65568;DHT22;52211;50.154;8.682;2023-05-08T05:17:45;16.50;58.60
65568;DHT22;52211;50.154;8.682;2023-05-08T05:20:14;16.50;58.60
65568;DHT22;52211;50.154;8.682;2023-05-08T05:22:44;16.50;58.60
65568;DHT22;52211;50.154;8.682;2023-05-08T05:25:13;16.50;58.60
65568;DHT22;52211;50.154;8.682;2023-05-08T05:27:41;16.50;58.70
65568;DHT22;52211;50.154;8.682;2023-05-08T05:30:09;16.50;58.70
65568;DHT22;52211;50.154;8.682;2023-05-08T05:32:37;16.50;58.70
65568;DHT22;52211;50.154;8.682;2023-05-08T05:35:06;16.50;58.70
65568;DHT22;52211;50.154;8.682;2023-05-08T05:37:38;16.50;58.80
65568;DHT22;52211;50.154;8.682;2023-05-08T05:40:08;16.50;58.70
65568;DHT22;52211;50.154;8.682;2023-05-08T05:42:39;16.50;58.80
65568;DHT22;52211;50.154;8.682;2023-05-08T05:45:08;16.50;59.00
65568;DHT22;52211;50.154;8.682;2023-05-08T05:47:43;16.50;59.00
65568;DHT22;52211;50.154;8.682;2023-05-08T05:50:19;16.50;59.20
65568;DHT22;52211;50.154;8.682;2023-05-08T05:52:50;16.50;59.00
65568;DHT22;52211;50.154;8.682;2023-05-08T05:55:20;16.50;59.20
65568;DHT22;52211;50.154;8.682;2023-05-08T05:57:50;16.50;59.20
65568;DHT22;52211;50.154;8.682;2023-05-08T06:00:24;16.50;59.40
65568;DHT22;52211;50.154;8.682;2023-05-08T06:02:56;16.50;59.20
65568;DHT22;52211;50.154;8.682;2023-05-08T06:05:26;16.60;59.20
65568;DHT22;52211;50.154;8.682;2023-05-08T06:07:57;16.50;59.20
65568;DHT22;52211;50.154;8.682;2023-05-08T06:10:25;16.50;59.20
65568;DHT22;52211;50.154;8.682;2023-05-08T06:12:55;16.50;59.30
65568;DHT22;52211;50.154;8.682;2023-05-08T06:15:22;16.50;59.30
65568;DHT22;52211;50.154;8.682;2023-05-08T06:17:53;16.60;59.40
65568;DHT22;52211;50.154;8.682;2023-05-08T06:20:25;16.60;59.30
65568;DHT22;52211;50.154;8.682;2023-05-08T06:22:54;16.60;59.50
65568;DHT22;52211;50.154;8.682;2023-05-08T06:25:23;16.60;59.40
65568;DHT22;52211;50.154;8.682;2023-05-08T06:27:56;16.60;59.40
65568;DHT22;52211;50.154;8.682;2023-05-08T06:30:25;16.60;59.60
65568;DHT22;52211;50.154;8.682;2023-05-08T06:32:54;16.60;59.50
65568;DHT22;52211;50.154;8.682;2023-05-08T06:35:23;16.70;59.60
65568;DHT22;52211;50.154;8.682;2023-05-08T06:37:55;16.70;59.50
65568;DHT22;52211;50.154;8.682;2023-05-08T06:40:25;16.70;59.60
65568;DHT22;52211;50.154;8.682;2023-05-08T06:42:57;16.70;59.50
65568;DHT22;52211;50.154;8.682;2023-05-08T06:45:24;16.70;59.50
65568;DHT22;52211;50.154;8.682;2023-05-08T06:47:51;16.70;59.60
65568;DHT22;52211;50.154;8.682;2023-05-08T06:50:23;16.70;59.50
65568;DHT22;52211;50.154;8.682;2023-05-08T06:52:52;16.70;59.60
65568;DHT22;52211;50.154;8.682;2023-05-08T06:55:18;16.80;59.70
65568;DHT22;52211;50.154;8.682;2023-05-08T06:57:49;16.80;59.60
65568;DHT22;52211;50.154;8.682;2023-05-08T07:00:16;16.70;59.70
65568;DHT22;52211;50.154;8.682;2023-05-08T07:02:45;16.80;59.80
65568;DHT22;52211;50.154;8.682;2023-05-08T07:05:11;16.80;59.90
65568;DHT22;52211;50.154;8.682;2023-05-08T07:07:41;16.80;60.00
65568;DHT22;52211;50.154;8.682;2023-05-08T07:10:13;16.80;60.00
65568;DHT22;52211;50.154;8.682;2023-05-08T07:12:39;16.80;60.00
65568;DHT22;52211;50.154;8.682;2023-05-08T07:15:09;16.90;60.10
65568;DHT22;52211;50.154;8.682;2023-05-08T07:17:51;16.90;60.00
65568;DHT22;52211;50.154;8.682;2023-05-08T07:20:20;16.90;60.00
65568;DHT22;52211;50.154;8.682;2023-05-08T07:22:53;16.90;60.00
65568;DHT22;52211;50.154;8.682;2023-05-08T07:25:20;16.90;60.20
65568;DHT22;52211;50.154;8.682;2023-05-08T07:27:52;17.00;60.20
65568;DHT22;52211;50.154;8.682;2023-05-08T07:30:21;17.00;60.20
65568;DHT22;52211;50.154;8.682;2023-05-08T07:32:57;17.00;60.20
65568;DHT22;52211;50.154;8.682;2023-05-08T07:35:24;17.10;60.30
65568;DHT22;52211;50.154;8.682;2023-05-08T07:37:59;17.10;60.10
65568;DHT22;52211;50.154;8.682;2023-05-08T07:40:26;17.20;60.30
65568;DHT22;52211;50.154;8.682;2023-05-08T07:42:53;17.20;60.20
65568;DHT22;52211;50.154;8.682;2023-05-08T07:45:20;17.20;60.20
65568;DHT22;52211;50.154;8.682;2023-05-08T07:47:54;17.30;60.20
65568;DHT22;52211;50.154;8.682;2023-05-08T07:50:24;17.30;60.40
65568;DHT22;52211;50.154;8.682;2023-05-08T07:52:52;17.30;60.20
65568;DHT22;52211;50.154;8.682;2023-05-08T07:55:21;17.40;60.30
65568;DHT22;52211;50.154;8.682;2023-05-08T07:57:48;17.40;60.20
65568;DHT22;52211;50.154;8.682;2023-05-08T08:00:21;17.40;60.20
65568;DHT22;52211;50.154;8.682;2023-05-08T08:02:55;17.40;60.10
65568;DHT22;52211;50.154;8.682;2023-05-08T08:05:25;17.40;60.10
65568;DHT22;52211;50.154;8.682;2023-05-08T08:07:59;17.50;60.10
65568;DHT22;52211;50.154;8.682;2023-05-08T08:10:30;17.50;60.20
65568;DHT22;52211;50.154;8.682;2023-05-08T08:12:57;17.50;60.30
65568;DHT22;52211;50.154;8.682;2023-05-08T08:15:27;17.50;60.20
65568;DHT22;52211;50.154;8.682;2023-05-08T08:17:57;17.60;60.20
65568;DHT22;52211;50.154;8.682;2023-05-08T08:20:30;17.60;60.20
65568;DHT22;52211;50.154;8.682;2023-05-08T08:23:00;17.60;60.20
65568;DHT22;52211;50.154;8.682;2023-05-08T08:25:29;17.70;60.20
65568;DHT22;52211;50.154;8.682;2023-05-08T08:27:59;17.70;60.20
65568;DHT22;52211;50.154;8.682;2023-05-08T08:30:26;17.70;60.20
65568;DHT22;52211;50.154;8.682;2023-05-08T08:32:55;17.70;60.10
65568;DHT22;52211;50.154;8.682;2023-05-08T08:35:28;17.70;60.00
65568;DHT22;52211;50.154;8.682;2023-05-08T08:37:56;17.80;60.10
65568;DHT22;52211;50.154;8.682;2023-05-08T08:40:25;17.80;60.10
65568;DHT22;52211;50.154;8.682;2023-05-08T08:42:54;17.80;60.20
65568;DHT22;52211;50.154;8.682;2023-05-08T08:45:22;17.80;60.20
65568;DHT22;52211;50.154;8.682;2023-05-08T08:47:51;17.80;60.20
65568;DHT22;52211;50.154;8.682;2023-05-08T08:50:24;17.80;60.30
65568;DHT22;52211;50.154;8.682;2023-05-08T08:53:23;17.90;60.30
65568;DHT22;52211;50.154;8.682;2023-05-08T08:55:57;17.90;60.30
65568;DHT22;52211;50.154;8.682;2023-05-08T08:58:30;17.90;60.30
65568;DHT22;52211;50.154;8.682;2023-05-08T09:01:02;18.00;60.20
65568;DHT22;52211;50.154;8.682;2023-05-08T09:03:31;18.10;60.20
65568;DHT22;52211;50.154;8.682;2023-05-08T09:06:05;18.10;60.20
65568;DHT22;52211;50.154;8.682;2023-05-08T09:08:36;18.10;60.10
65568;DHT22;52211;50.154;8.682;2023-05-08T09:11:10;18.10;60.20
65568;DHT22;52211;50.154;8.682;2023-05-08T09:13:37;18.20;60.20
65568;DHT22;52211;50.154;8.682;2023-05-08T09:16:04;18.20;60.20
65568;DHT22;52211;50.154;8.682;2023-05-08T09:18:36;18.30;60.20
65568;DHT22;52211;50.154;8.682;2023-05-08T09:21:05;18.20;60.20
65568;DHT22;52211;50.154;8.682;2023-05-08T09:23:35;18.30;60.20
65568;DHT22;52211;50.154;8.682;2023-05-08T09:26:33;18.40;60.30
65568;DHT22;52211;50.154;8.682;2023-05-08T09:31:41;18.40;60.30
65568;DHT22;52211;50.154;8.682;2023-05-08T09:34:27;18.40;60.10
65568;DHT22;52211;50.154;8.682;2023-05-08T09:39:31;18.40;60.10
65568;DHT22;52211;50.154;8.682;2023-05-08T09:42:03;18.40;60.00
65568;DHT22;52211;50.154;8.682;2023-05-08T09:44:51;18.50;60.10
65568;DHT22;52211;50.154;8.682;2023-05-08T09:47:21;18.50;60.30
65568;DHT22;52211;50.154;8.682;2023-05-08T09:52:36;18.50;60.20
65568;DHT22;52211;50.154;8.682;2023-05-08T09:55:14;18.50;60.00
65568;DHT22;52211;50.154;8.682;2023-05-08T09:57:55;18.50;60.00
65568;DHT22;52211;50.154;8.682;2023-05-08T10:00:28;18.50;60.40
65568;DHT22;52211;50.154;8.682;2023-05-08T10:02:57;18.50;60.10
65568;DHT22;52211;50.154;8.682;2023-05-08T10:08:18;18.60;60.20
65568;DHT22;52211;50.154;8.682;2023-05-08T10:10:47;18.70;60.30
65568;DHT22;52211;50.154;8.682;2023-05-08T10:13:15;18.70;60.60
65568;DHT22;52211;50.154;8.682;2023-05-08T10:15:43;18.70;60.00
65568;DHT22;52211;50.154;8.682;2023-05-08T10:18:14;18.70;60.00
65568;DHT22;52211;50.154;8.682;2023-05-08T10:20:48;18.70;60.10
65568;DHT22;52211;50.154;8.682;2023-05-08T10:23:16;18.70;60.10
65568;DHT22;52211;50.154;8.682;2023-05-08T10:25:46;18.70;60.00
65568;DHT22;52211;50.154;8.682;2023-05-08T10:31:16;18.80;60.20
65568;DHT22;52211;50.154;8.682;2023-05-08T10:33:50;18.90;60.30
65568;DHT22;52211;50.154;8.682;2023-05-08T10:36:25;18.90;60.20
65568;DHT22;52211;50.154;8.682;2023-05-08T10:38:57;19.00;60.30
65568;DHT22;52211;50.154;8.682;2023-05-08T10:41:29;19.10;60.30
65568;DHT22;52211;50.154;8.682;2023-05-08T10:43:58;19.20;60.40
65568;DHT22;52211;50.154;8.682;2023-05-08T10:46:46;19.30;60.30
65568;DHT22;52211;50.154;8.682;2023-05-08T10:52:16;19.50;60.20
65568;DHT22;52211;50.154;8.682;2023-05-08T10:57:22;19.80;59.90
65568;DHT22;52211;50.154;8.682;2023-05-08T10:59:51;19.80;59.70
65568;DHT22;52211;50.154;8.682;2023-05-08T11:02:26;19.90;59.70
65568;DHT22;52211;50.154;8.682;2023-05-08T11:05:20;20.00;59.60
65568;DHT22;52211;50.154;8.682;2023-05-08T11:07:56;20.00;59.70
65568;DHT22;52211;50.154;8.682;2023-05-08T11:10:31;20.10;59.40
65568;DHT22;52211;50.154;8.682;2023-05-08T11:13:08;20.20;59.50
65568;DHT22;52211;50.154;8.682;2023-05-08T11:15:38;20.30;59.40
65568;DHT22;52211;50.154;8.682;2023-05-08T11:18:11;20.30;59.30
65568;DHT22;52211;50.154;8.682;2023-05-08T11:23:31;20.50;59.20
65568;DHT22;52211;50.154;8.682;2023-05-08T11:28:56;20.70;59.00
65568;DHT22;52211;50.154;8.682;2023-05-08T11:31:49;20.80;59.00
65568;DHT22;52211;50.154;8.682;2023-05-08T11:37:15;21.00;58.70
65568;DHT22;52211;50.154;8.682;2023-05-08T11:39:46;21.10;58.50
65568;DHT22;52211;50.154;8.682;2023-05-08T11:50:05;21.20;58.20
65568;DHT22;52211;50.154;8.682;2023-05-08T11:52:43;21.20;58.30
65568;DHT22;52211;50.154;8.682;2023-05-08T11:55:13;21.30;58.20
65568;DHT22;52211;50.154;8.682;2023-05-08T11:57:45;21.40;58.30
65568;DHT22;52211;50.154;8.682;2023-05-08T12:00:14;21.40;58.20
65568;DHT22;52211;50.154;8.682;2023-05-08T12:02:44;21.50;58.10
65568;DHT22;52211;50.154;8.682;2023-05-08T12:05:27;21.60;58.10
65568;DHT22;52211;50.154;8.682;2023-05-08T12:07:59;21.60;57.80
65568;DHT22;52211;50.154;8.682;2023-05-08T12:10:29;21.70;57.90
65568;DHT22;52211;50.154;8.682;2023-05-08T12:13:16;21.80;57.90
65568;DHT22;52211;50.154;8.682;2023-05-08T12:15:57;21.90;57.60
65568;DHT22;52211;50.154;8.682;2023-05-08T12:18:30;22.00;57.80
65568;DHT22;52211;50.154;8.682;2023-05-08T12:20:59;22.10;57.30
65568;DHT22;52211;50.154;8.682;2023-05-08T12:23:28;22.20;57.30
65568;DHT22;52211;50.154;8.682;2023-05-08T12:25:59;22.20;57.20
65568;DHT22;52211;50.154;8.682;2023-05-08T12:28:27;22.30;57.00
65568;DHT22;52211;50.154;8.682;2023-05-08T12:31:00;22.30;56.90
65568;DHT22;52211;50.154;8.682;2023-05-08T12:33:33;22.40;57.70
65568;DHT22;52211;50.154;8.682;2023-05-08T12:36:06;22.50;57.10
65568;DHT22;52211;50.154;8.682;2023-05-08T12:38:36;22.60;56.90
65568;DHT22;52211;50.154;8.682;2023-05-08T12:41:05;22.70;57.00
65568;DHT22;52211;50.154;8.682;2023-05-08T12:43:34;22.90;56.90
65568;DHT22;52211;50.154;8.682;2023-05-08T12:46:04;23.00;56.70
65568;DHT22;52211;50.154;8.682;2023-05-08T12:48:34;23.10;56.40
65568;DHT22;52211;50.154;8.682;2023-05-08T12:51:04;23.30;56.40
65568;DHT22;52211;50.154;8.682;2023-05-08T12:53:32;23.40;56.70
65568;DHT22;52211;50.154;8.682;2023-05-08T12:56:03;23.60;56.20
65568;DHT22;52211;50.154;8.682;2023-05-08T12:58:32;23.70;55.90
65568;DHT22;52211;50.154;8.682;2023-05-08T13:01:15;23.90;56.00
65568;DHT22;52211;50.154;8.682;2023-05-08T13:03:44;24.10;55.90
65568;DHT22;52211;50.154;8.682;2023-05-08T13:06:28;24.30;55.90
65568;DHT22;52211;50.154;8.682;2023-05-08T13:08:55;24.50;55.60
65568;DHT22;52211;50.154;8.682;2023-05-08T13:11:31;24.70;55.10
65568;DHT22;52211;50.154;8.682;2023-05-08T13:13:59;24.80;54.30
65568;DHT22;52211;50.154;8.682;2023-05-08T13:16:43;24.90;54.60
65568;DHT22;52211;50.154;8.682;2023-05-08T13:19:14;25.00;53.70
65568;DHT22;52211;50.154;8.682;2023-05-08T13:21:41;25.10;54.00
65568;DHT22;52211;50.154;8.682;2023-05-08T13:24:14;25.20;53.80
65568;DHT22;52211;50.154;8.682;2023-05-08T13:26:43;25.20;54.20
65568;DHT22;52211;50.154;8.682;2023-05-08T13:29:11;25.20;53.20
65568;DHT22;52211;50.154;8.682;2023-05-08T13:31:41;25.20;53.20
65568;DHT22;52211;50.154;8.682;2023-05-08T13:34:13;25.20;52.90
65568;DHT22;52211;50.154;8.682;2023-05-08T13:36:42;25.20;52.90
65568;DHT22;52211;50.154;8.682;2023-05-08T13:39:12;25.10;52.60
65568;DHT22;52211;50.154;8.682;2023-05-08T13:41:39;25.10;52.60
65568;DHT22;52211;50.154;8.682;2023-05-08T13:44:08;25.10;52.60
65568;DHT22;52211;50.154;8.682;2023-05-08T13:46:37;25.00;52.40
65568;DHT22;52211;50.154;8.682;2023-05-08T13:49:06;25.00;52.70
65568;DHT22;52211;50.154;8.682;2023-05-08T13:51:38;25.00;52.70
65568;DHT22;52211;50.154;8.682;2023-05-08T13:54:05;24.90;52.70
65568;DHT22;52211;50.154;8.682;2023-05-08T13:56:32;25.00;52.70
65568;DHT22;52211;50.154;8.682;2023-05-08T13:59:04;24.90;52.60
65568;DHT22;52211;50.154;8.682;2023-05-08T14:01:34;24.90;52.30
65568;DHT22;52211;50.154;8.682;2023-05-08T14:04:01;24.90;52.30
65568;DHT22;52211;50.154;8.682;2023-05-08T14:06:34;24.90;52.50
65568;DHT22;52211;50.154;8.682;2023-05-08T14:09:08;24.90;52.30
65568;DHT22;52211;50.154;8.682;2023-05-08T14:11:38;24.90;52.30
65568;DHT22;52211;50.154;8.682;2023-05-08T14:14:07;24.90;52.30
65568;DHT22;52211;50.154;8.682;2023-05-08T14:16:36;24.90;52.20
65568;DHT22;52211;50.154;8.682;2023-05-08T14:19:08;24.90;52.20
65568;DHT22;52211;50.154;8.682;2023-05-08T14:21:37;24.90;52.10
65568;DHT22;52211;50.154;8.682;2023-05-08T14:24:11;24.80;52.10
65568;DHT22;52211;50.154;8.682;2023-05-08T14:26:42;24.90;52.00
65568;DHT22;52211;50.154;8.682;2023-05-08T14:29:14;24.90;52.00
65568;DHT22;52211;50.154;8.682;2023-05-08T14:31:44;24.90;52.00
65568;DHT22;52211;50.154;8.682;2023-05-08T14:34:14;25.00;52.00
65568;DHT22;52211;50.154;8.682;2023-05-08T14:36:44;25.00;51.80
65568;DHT22;52211;50.154;8.682;2023-05-08T14:39:13;25.10;51.80
65568;DHT22;52211;50.154;8.682;2023-05-08T14:41:40;25.10;51.70
65568;DHT22;52211;50.154;8.682;2023-05-08T14:44:32;25.20;51.80
65568;DHT22;52211;50.154;8.682;2023-05-08T14:46:59;25.20;51.70
65568;DHT22;52211;50.154;8.682;2023-05-08T14:49:28;25.30;51.60
65568;DHT22;52211;50.154;8.682;2023-05-08T14:52:18;25.30;51.40
65568;DHT22;52211;50.154;8.682;2023-05-08T14:54:47;25.40;51.40
65568;DHT22;52211;50.154;8.682;2023-05-08T14:57:19;25.40;51.10
65568;DHT22;52211;50.154;8.682;2023-05-08T14:59:46;25.40;51.00
65568;DHT22;52211;50.154;8.682;2023-05-08T15:02:22;25.40;50.70
65568;DHT22;52211;50.154;8.682;2023-05-08T15:04:51;25.30;50.70
65568;DHT22;52211;50.154;8.682;2023-05-08T15:07:22;25.20;50.60
65568;DHT22;52211;50.154;8.682;2023-05-08T15:09:48;25.20;50.70
65568;DHT22;52211;50.154;8.682;2023-05-08T15:12:21;25.10;50.60
65568;DHT22;52211;50.154;8.682;2023-05-08T15:14:50;25.10;50.60
65568;DHT22;52211;50.154;8.682;2023-05-08T15:17:20;25.10;50.80
65568;DHT22;52211;50.154;8.682;2023-05-08T15:19:49;25.10;50.80
65568;DHT22;52211;50.154;8.682;2023-05-08T15:22:16;25.10;50.70
65568;DHT22;52211;50.154;8.682;2023-05-08T15:24:43;25.00;50.70
65568;DHT22;52211;50.154;8.682;2023-05-08T15:27:12;25.00;50.70
65568;DHT22;52211;50.154;8.682;2023-05-08T15:29:44;25.10;50.60
65568;DHT22;52211;50.154;8.682;2023-05-08T15:32:11;25.00;50.30
65568;DHT22;52211;50.154;8.682;2023-05-08T15:34:40;25.00;50.40
65568;DHT22;52211;50.154;8.682;2023-05-08T15:37:13;24.90;50.20
65568;DHT22;52211;50.154;8.682;2023-05-08T15:39:39;24.90;50.10
65568;DHT22;52211;50.154;8.682;2023-05-08T15:42:11;24.80;50.20
65568;DHT22;52211;50.154;8.682;2023-05-08T15:44:40;24.70;50.00
65568;DHT22;52211;50.154;8.682;2023-05-08T15:47:24;24.60;50.00
65568;DHT22;52211;50.154;8.682;2023-05-08T15:49:55;24.50;50.00
65568;DHT22;52211;50.154;8.682;2023-05-08T15:52:27;24.40;50.10
65568;DHT22;52211;50.154;8.682;2023-05-08T15:54:54;24.30;50.10
65568;DHT22;52211;50.154;8.682;2023-05-08T15:57:23;24.20;50.10
65568;DHT22;52211;50.154;8.682;2023-05-08T15:59:52;24.10;50.20
65568;DHT22;52211;50.154;8.682;2023-05-08T16:02:21;24.10;50.30
65568;DHT22;52211;50.154;8.682;2023-05-08T16:04:52;24.00;50.40
65568;DHT22;52211;50.154;8.682;2023-05-08T16:07:19;23.90;50.40
65568;DHT22;52211;50.154;8.682;2023-05-08T16:09:51;23.90;50.60
65568;DHT22;52211;50.154;8.682;2023-05-08T16:12:18;23.80;50.60
65568;DHT22;52211;50.154;8.682;2023-05-08T16:14:47;23.80;50.60
65568;DHT22;52211;50.154;8.682;2023-05-08T16:17:19;23.70;50.70
65568;DHT22;52211;50.154;8.682;2023-05-08T16:19:51;23.60;50.80
65568;DHT22;52211;50.154;8.682;2023-05-08T16:22:25;23.60;50.90
65568;DHT22;52211;50.154;8.682;2023-05-08T16:24:57;23.60;51.00
65568;DHT22;52211;50.154;8.682;2023-05-08T16:27:31;23.50;51.00
65568;DHT22;52211;50.154;8.682;2023-05-08T16:30:00;23.40;51.00
65568;DHT22;52211;50.154;8.682;2023-05-08T16:32:32;23.40;51.10
65568;DHT22;52211;50.154;8.682;2023-05-08T16:35:04;23.30;51.10
65568;DHT22;52211;50.154;8.682;2023-05-08T16:37:33;23.20;51.10
65568;DHT22;52211;50.154;8.682;2023-05-08T16:40:04;23.10;51.30
65568;DHT22;52211;50.154;8.682;2023-05-08T16:42:32;23.10;51.30
65568;DHT22;52211;50.154;8.682;2023-05-08T16:45:05;23.10;51.40
65568;DHT22;52211;50.154;8.682;2023-05-08T16:47:33;23.00;51.40
65568;DHT22;52211;50.154;8.682;2023-05-08T16:50:03;22.90;51.50
65568;DHT22;52211;50.154;8.682;2023-05-08T16:52:35;22.90;51.60
65568;DHT22;52211;50.154;8.682;2023-05-08T16:55:05;22.80;51.70
65568;DHT22;52211;50.154;8.682;2023-05-08T16:57:33;22.70;51.70
65568;DHT22;52211;50.154;8.682;2023-05-08T17:00:00;22.70;51.80